createdAt,value
2023-05-21T00:00:55.813Z,62.78
2023-05-21T00:01:55.792Z,62.88
2023-05-21T00:02:55.835Z,62.91
2023-05-21T00:03:55.887Z,62.96
2023-05-21T00:04:55.811Z,63.18
2023-05-21T00:05:55.871Z,63.35
2023-05-21T00:06:55.776Z,63.41
2023-05-21T00:07:55.780Z,63.33
2023-05-21T00:08:55.776Z,62.41
2023-05-21T00:09:55.765Z,62.30
2023-05-21T00:10:55.787Z,62.78
2023-05-21T00:11:55.831Z,63.00
2023-05-21T00:12:55.767Z,62.90
2023-05-21T00:13:55.795Z,62.36
2023-05-21T00:14:55.766Z,62.44
2023-05-21T00:15:55.800Z,62.42
2023-05-21T00:16:55.768Z,62.22
2023-05-21T00:17:55.780Z,62.19
2023-05-21T00:18:55.829Z,62.26
2023-05-21T00:19:55.756Z,62.48
2023-05-21T00:20:55.767Z,62.75
2023-05-21T00:21:55.782Z,63.04
2023-05-21T00:22:55.759Z,63.56
2023-05-21T00:23:55.748Z,63.49
2023-05-21T00:24:55.760Z,63.47
2023-05-21T00:25:56.922Z,63.17
2023-05-21T00:26:55.901Z,63.23
2023-05-21T00:27:55.936Z,62.99
2023-05-21T00:28:55.961Z,62.82
2023-05-21T00:29:56.046Z,62.73
2023-05-21T00:30:56.111Z,62.76
2023-05-21T00:31:56.255Z,62.89
2023-05-21T00:32:56.219Z,62.87
2023-05-21T00:33:56.233Z,62.95
2023-05-21T00:34:56.271Z,63.11
2023-05-21T00:35:56.312Z,63.21
2023-05-21T00:36:56.377Z,63.31
2023-05-21T00:37:56.419Z,63.22
2023-05-21T00:38:56.381Z,63.55
2023-05-21T00:39:58.291Z,63.61
2023-05-21T00:40:56.444Z,63.52
2023-05-21T00:41:56.955Z,63.76
2023-05-21T00:42:56.438Z,63.77
2023-05-21T00:43:56.445Z,63.93
2023-05-21T00:44:56.448Z,64.08
2023-05-21T00:45:56.579Z,64.05
2023-05-21T00:46:56.451Z,63.92
2023-05-21T00:47:56.538Z,64.16
2023-05-21T00:48:56.444Z,64.07
2023-05-21T00:49:56.449Z,63.84
2023-05-21T00:50:56.475Z,63.67
2023-05-21T00:51:56.461Z,63.45
2023-05-21T00:52:56.448Z,63.49
2023-05-21T00:53:56.447Z,63.45
2023-05-21T00:54:56.448Z,63.40
2023-05-21T00:55:56.479Z,63.42
2023-05-21T00:56:56.460Z,63.39
2023-05-21T00:57:56.519Z,63.34
2023-05-21T00:58:56.552Z,63.53
2023-05-21T00:59:56.624Z,63.63
2023-05-21T01:00:56.724Z,63.74
2023-05-21T01:01:56.861Z,63.78
2023-05-21T01:02:56.920Z,64.15
2023-05-21T01:03:56.870Z,64.00
2023-05-21T01:04:56.939Z,64.15
2023-05-21T01:05:57.049Z,64.53
2023-05-21T01:06:57.081Z,64.55
2023-05-21T01:07:57.157Z,64.69
2023-05-21T01:08:57.218Z,64.69
2023-05-21T01:09:57.291Z,64.53
2023-05-21T01:10:57.362Z,64.41
2023-05-21T01:11:57.419Z,64.34
2023-05-21T01:12:57.540Z,64.26
2023-05-21T01:13:57.580Z,64.19
2023-05-21T01:14:57.625Z,64.03
2023-05-21T01:15:57.693Z,63.88
2023-05-21T01:16:57.806Z,63.83
2023-05-21T01:17:58.001Z,63.84
2023-05-21T01:18:57.993Z,63.84
2023-05-21T01:19:57.901Z,63.89
2023-05-21T01:20:57.961Z,64.07
2023-05-21T01:21:57.977Z,64.23
2023-05-21T01:22:57.980Z,64.19
2023-05-21T01:23:57.980Z,64.31
2023-05-21T01:24:58.049Z,64.99
2023-05-21T01:25:58.132Z,65.51
2023-05-21T01:26:58.209Z,65.69
2023-05-21T01:27:58.259Z,65.38
2023-05-21T01:28:58.360Z,65.15
2023-05-21T01:29:58.426Z,65.30
2023-05-21T01:30:57.506Z,65.07
2023-05-21T01:31:58.659Z,64.81
2023-05-21T01:32:58.786Z,64.85
2023-05-21T01:33:58.800Z,64.53
2023-05-21T01:34:58.814Z,64.36
2023-05-21T01:35:58.929Z,64.36
2023-05-21T01:36:58.972Z,64.43
2023-05-21T01:37:59.054Z,64.08
2023-05-21T01:38:59.135Z,64.03
2023-05-21T01:39:59.205Z,63.95
2023-05-21T01:40:59.268Z,63.82
2023-05-21T01:41:59.368Z,63.60
2023-05-21T01:42:59.420Z,63.31
2023-05-21T01:43:59.505Z,63.05
2023-05-21T01:44:59.604Z,63.03
2023-05-21T01:45:59.659Z,62.95
2023-05-21T01:46:59.712Z,62.66
2023-05-21T01:47:59.832Z,62.52
2023-05-21T01:48:59.866Z,63.34
2023-05-21T01:49:59.963Z,63.44
2023-05-21T01:50:59.966Z,63.49
2023-05-21T01:52:00.016Z,63.49
2023-05-21T01:52:59.998Z,63.36
2023-05-21T01:54:00.058Z,63.52
2023-05-21T01:55:00.138Z,63.46
2023-05-21T01:56:00.159Z,63.71
2023-05-21T01:57:00.179Z,63.71
2023-05-21T01:58:02.290Z,63.71
2023-05-21T01:59:00.221Z,63.68
2023-05-21T02:00:00.217Z,63.67
2023-05-21T02:01:00.233Z,63.85
2023-05-21T02:02:00.302Z,64.04
2023-05-21T02:03:00.356Z,64.06
2023-05-21T02:04:00.324Z,63.90
2023-05-21T02:05:00.285Z,63.87
2023-05-21T02:06:00.346Z,63.75
2023-05-21T02:07:00.294Z,63.60
2023-05-21T02:08:00.308Z,63.80
2023-05-21T02:09:00.316Z,63.85
2023-05-21T02:10:00.324Z,63.90
2023-05-21T02:11:00.356Z,64.14
2023-05-21T02:12:00.343Z,64.16
2023-05-21T02:13:00.396Z,64.13
2023-05-21T02:14:00.358Z,64.20
2023-05-21T02:15:00.389Z,64.25
2023-05-21T02:16:00.405Z,64.37
2023-05-21T02:17:00.389Z,64.34
2023-05-21T02:18:00.451Z,64.41
2023-05-21T02:19:00.459Z,64.51
2023-05-21T02:20:00.434Z,64.49
2023-05-21T02:21:00.448Z,64.47
2023-05-21T02:22:00.492Z,64.47
2023-05-21T02:23:00.479Z,64.62
2023-05-21T02:24:00.495Z,64.85
2023-05-21T02:25:00.528Z,64.75
2023-05-21T02:26:00.549Z,64.74
2023-05-21T02:27:00.555Z,64.72
2023-05-21T02:28:00.563Z,64.64
2023-05-21T02:29:00.593Z,64.64
2023-05-21T02:30:00.609Z,64.73
2023-05-21T02:31:00.619Z,64.80
2023-05-21T02:32:00.651Z,65.06
2023-05-21T02:33:00.725Z,65.17
2023-05-21T02:34:00.736Z,65.15
2023-05-21T02:35:00.719Z,65.38
2023-05-21T02:36:00.751Z,65.87
2023-05-21T02:37:00.770Z,66.21
2023-05-21T02:38:00.806Z,66.43
2023-05-21T02:39:00.826Z,66.30
2023-05-21T02:40:00.851Z,66.32
2023-05-21T02:41:00.885Z,66.16
2023-05-21T02:42:00.899Z,65.97
2023-05-21T02:43:00.942Z,66.08
2023-05-21T02:44:00.947Z,66.08
2023-05-21T02:45:00.979Z,66.05
2023-05-21T02:46:01.027Z,66.09
2023-05-21T02:47:01.030Z,66.00
2023-05-21T02:48:01.068Z,65.89
2023-05-21T02:49:01.073Z,65.85
2023-05-21T02:50:01.154Z,65.81
2023-05-21T02:51:01.215Z,65.85
2023-05-21T02:52:01.260Z,65.87
2023-05-21T02:53:02.467Z,65.67
2023-05-21T02:54:01.419Z,65.52
2023-05-21T02:55:01.479Z,65.53
2023-05-21T02:56:01.552Z,65.51
2023-05-21T02:57:01.616Z,65.33
2023-05-21T02:58:01.699Z,65.38
2023-05-21T02:59:01.778Z,65.50
2023-05-21T03:00:01.849Z,65.56
2023-05-21T03:01:01.941Z,65.41
2023-05-21T03:02:02.010Z,65.36
2023-05-21T03:03:02.150Z,65.46
2023-05-21T03:04:02.088Z,65.84
2023-05-21T03:05:02.167Z,66.57
2023-05-21T03:06:02.251Z,67.07
2023-05-21T03:07:02.330Z,67.07
2023-05-21T03:08:02.423Z,67.02
2023-05-21T03:09:02.498Z,67.17
2023-05-21T03:10:02.646Z,67.18
2023-05-21T03:11:02.687Z,67.28
2023-05-21T03:12:02.867Z,67.18
2023-05-21T03:13:02.903Z,67.11
2023-05-21T03:14:02.963Z,66.86
2023-05-21T03:15:03.055Z,66.77
2023-05-21T03:16:03.132Z,66.59
2023-05-21T03:17:03.248Z,66.30
2023-05-21T03:18:03.366Z,66.61
2023-05-21T03:19:03.455Z,67.05
2023-05-21T03:20:03.485Z,66.94
2023-05-21T03:21:03.556Z,66.81
2023-05-21T03:22:03.643Z,66.98
2023-05-21T03:23:03.703Z,67.07
2023-05-21T03:24:03.734Z,67.16
2023-05-21T03:25:03.783Z,67.15
2023-05-21T03:26:03.838Z,67.24
2023-05-21T03:27:03.860Z,67.08
2023-05-21T03:28:03.938Z,67.25
2023-05-21T03:29:03.946Z,67.16
2023-05-21T03:30:05.323Z,67.57
2023-05-21T03:31:03.998Z,67.52
2023-05-21T03:32:04.091Z,67.32
2023-05-21T03:33:04.088Z,67.25
2023-05-21T03:34:04.108Z,67.25
2023-05-21T03:35:04.126Z,67.20
2023-05-21T03:36:04.155Z,67.09
2023-05-21T03:37:04.168Z,67.06
2023-05-21T03:38:04.197Z,66.91
2023-05-21T03:39:04.215Z,67.01
2023-05-21T03:40:04.246Z,66.97
2023-05-21T03:41:04.279Z,67.11
2023-05-21T03:42:04.298Z,67.12
2023-05-21T03:43:04.302Z,67.01
2023-05-21T03:44:04.316Z,66.96
2023-05-21T03:45:04.331Z,66.87
2023-05-21T03:46:04.389Z,66.86
2023-05-21T03:47:04.369Z,66.32
2023-05-21T03:48:04.471Z,66.21
2023-05-21T03:49:04.417Z,65.97
2023-05-21T03:50:04.436Z,65.92
2023-05-21T03:51:04.454Z,65.84
2023-05-21T03:52:04.462Z,65.77
2023-05-21T03:53:04.477Z,65.91
2023-05-21T03:54:04.487Z,66.21
2023-05-21T03:55:04.528Z,66.11
2023-05-21T03:56:04.525Z,66.14
2023-05-21T03:57:04.565Z,66.25
2023-05-21T03:58:04.646Z,66.19
2023-05-21T03:59:04.688Z,66.24
2023-05-21T04:00:04.764Z,66.14
2023-05-21T04:01:04.850Z,66.16
2023-05-21T04:02:04.943Z,66.30
2023-05-21T04:03:05.015Z,66.13
2023-05-21T04:04:05.117Z,65.74
2023-05-21T04:05:05.136Z,65.67
2023-05-21T04:06:05.190Z,65.55
2023-05-21T04:07:05.270Z,65.55
2023-05-21T04:08:05.308Z,65.49
2023-05-21T04:09:05.361Z,65.41
2023-05-21T04:10:05.438Z,65.27
2023-05-21T04:11:05.486Z,65.34
2023-05-21T04:12:05.532Z,65.49
2023-05-21T04:13:05.581Z,65.66
2023-05-21T04:14:05.656Z,66.00
2023-05-21T04:15:05.664Z,66.29
2023-05-21T04:16:05.720Z,66.61
2023-05-21T04:17:05.740Z,66.79
2023-05-21T04:18:05.834Z,66.81
2023-05-21T04:19:05.850Z,66.80
2023-05-21T04:20:05.898Z,66.81
2023-05-21T04:21:05.959Z,66.85
2023-05-21T04:22:05.999Z,66.77
2023-05-21T04:23:06.059Z,66.65
2023-05-21T04:24:06.128Z,66.65
2023-05-21T04:25:06.155Z,66.58
2023-05-21T04:26:06.185Z,66.31
2023-05-21T04:27:06.172Z,66.13
2023-05-21T04:28:06.184Z,65.56
2023-05-21T04:29:06.201Z,65.25
2023-05-21T04:30:06.288Z,64.83
2023-05-21T04:31:06.352Z,64.42
2023-05-21T04:32:06.378Z,64.03
2023-05-21T04:33:06.442Z,63.45
2023-05-21T04:34:06.471Z,62.54
2023-05-21T04:35:06.505Z,62.20
2023-05-21T04:36:06.572Z,61.46
2023-05-21T04:37:06.610Z,61.11
2023-05-21T04:38:06.691Z,61.17
2023-05-21T04:39:06.720Z,61.37
2023-05-21T04:40:06.816Z,61.48
2023-05-21T04:41:06.858Z,61.47
2023-05-21T04:42:06.925Z,61.43
2023-05-21T04:43:07.054Z,61.22
2023-05-21T04:44:07.031Z,61.13
2023-05-21T04:45:07.071Z,61.04
2023-05-21T04:46:07.170Z,60.74
2023-05-21T04:47:07.268Z,60.62
2023-05-21T04:48:07.275Z,60.27
2023-05-21T04:49:07.293Z,60.19
2023-05-21T04:50:07.335Z,59.95
2023-05-21T04:51:07.403Z,59.67
2023-05-21T04:52:07.452Z,59.56
2023-05-21T04:53:07.483Z,59.27
2023-05-21T04:54:07.516Z,59.02
2023-05-21T04:55:07.531Z,58.79
2023-05-21T04:56:07.536Z,58.86
2023-05-21T04:57:07.512Z,58.75
2023-05-21T04:58:07.519Z,58.65
2023-05-21T04:59:07.525Z,58.67
2023-05-21T05:00:07.493Z,58.46
2023-05-21T05:01:07.574Z,58.33
2023-05-21T05:02:07.482Z,58.24
2023-05-21T05:03:07.473Z,58.54
2023-05-21T05:04:07.466Z,58.71
2023-05-21T05:05:07.493Z,59.05
2023-05-21T05:06:07.518Z,59.51
2023-05-21T05:07:07.564Z,59.58
2023-05-21T05:08:07.669Z,59.72
2023-05-21T05:09:07.660Z,59.66
2023-05-21T05:10:07.712Z,59.32
2023-05-21T05:11:07.754Z,59.08
2023-05-21T05:12:07.771Z,59.61
2023-05-21T05:13:07.829Z,59.79
2023-05-21T05:14:07.856Z,59.75
2023-05-21T05:15:07.870Z,59.92
2023-05-21T05:16:07.913Z,59.85
2023-05-21T05:17:07.917Z,60.00
2023-05-21T05:18:07.996Z,60.34
2023-05-21T05:19:08.035Z,60.34
2023-05-21T05:20:07.978Z,60.23
2023-05-21T05:21:07.978Z,59.22
2023-05-21T05:22:07.999Z,58.80
2023-05-21T05:23:08.023Z,59.10
2023-05-21T05:24:08.018Z,59.72
2023-05-21T05:25:08.002Z,59.48
2023-05-21T05:26:07.992Z,59.11
2023-05-21T05:27:07.976Z,58.38
2023-05-21T05:28:07.969Z,58.42
2023-05-21T05:29:07.936Z,59.01
2023-05-21T05:30:07.924Z,58.67
2023-05-21T05:31:07.926Z,58.68
2023-05-21T05:32:07.899Z,58.75
2023-05-21T05:33:07.992Z,58.87
2023-05-21T05:34:07.929Z,58.57
2023-05-21T05:35:07.946Z,58.44
2023-05-21T05:36:07.932Z,58.92
2023-05-21T05:37:07.911Z,58.11
2023-05-21T05:38:07.889Z,57.53
2023-05-21T05:39:07.892Z,57.80
2023-05-21T05:40:07.895Z,57.74
2023-05-21T05:41:07.892Z,58.00
2023-05-21T05:42:07.896Z,57.32
2023-05-21T05:43:07.947Z,56.33
2023-05-21T05:44:10.256Z,56.53
2023-05-21T05:45:07.894Z,56.44
2023-05-21T05:46:07.905Z,56.23
2023-05-21T05:47:07.870Z,56.71
2023-05-21T05:48:07.905Z,57.17
2023-05-21T05:49:07.829Z,57.55
2023-05-21T05:50:07.833Z,57.48
2023-05-21T05:51:07.788Z,58.15
2023-05-21T05:52:07.780Z,58.53
2023-05-21T05:53:07.752Z,58.51
2023-05-21T05:54:07.733Z,58.20
2023-05-21T05:55:07.701Z,58.74
2023-05-21T05:56:07.699Z,59.22
2023-05-21T05:57:07.690Z,58.04
2023-05-21T05:58:07.673Z,57.84
2023-05-21T05:59:07.658Z,58.10
2023-05-21T06:00:07.687Z,58.20
2023-05-21T06:01:07.632Z,58.70
2023-05-21T06:02:07.749Z,58.93
2023-05-21T06:03:07.715Z,59.42
2023-05-21T06:04:07.592Z,59.39
2023-05-21T06:05:07.595Z,59.59
2023-05-21T06:06:07.665Z,59.71
2023-05-21T06:07:07.579Z,59.90
2023-05-21T06:08:07.594Z,59.75
2023-05-21T06:09:07.558Z,59.57
2023-05-21T06:10:07.515Z,59.24
2023-05-21T06:11:07.492Z,58.86
2023-05-21T06:12:07.489Z,58.11
2023-05-21T06:13:07.470Z,57.01
2023-05-21T06:14:07.416Z,56.58
2023-05-21T06:15:07.393Z,56.12
2023-05-21T06:16:07.423Z,55.97
2023-05-21T06:17:07.307Z,55.46
2023-05-21T06:18:07.380Z,54.80
2023-05-21T06:19:07.309Z,54.76
2023-05-21T06:20:07.214Z,54.62
2023-05-21T06:21:07.171Z,54.84
2023-05-21T06:22:07.149Z,55.13
2023-05-21T06:23:07.148Z,54.95
2023-05-21T06:24:07.138Z,55.36
2023-05-21T06:25:07.175Z,55.25
2023-05-21T06:26:07.216Z,54.74
2023-05-21T06:27:07.268Z,54.84
2023-05-21T06:28:07.243Z,55.07
2023-05-21T06:29:07.260Z,55.66
2023-05-21T06:30:07.297Z,54.52
2023-05-21T06:31:07.308Z,54.95
2023-05-21T06:32:07.336Z,55.42
2023-05-21T06:33:07.389Z,54.85
2023-05-21T06:34:07.371Z,53.80
2023-05-21T06:35:07.289Z,53.30
2023-05-21T06:36:07.279Z,54.02
2023-05-21T06:37:07.271Z,53.65
2023-05-21T06:38:07.378Z,52.72
2023-05-21T06:39:07.317Z,52.78
2023-05-21T06:40:07.300Z,52.78
2023-05-21T06:41:07.276Z,51.74
2023-05-21T06:42:07.268Z,51.45
2023-05-21T06:43:07.278Z,51.10
2023-05-21T06:44:07.274Z,51.13
2023-05-21T06:45:07.273Z,50.73
2023-05-21T06:46:07.318Z,50.77
2023-05-21T06:47:07.280Z,50.48
2023-05-21T06:48:07.402Z,49.98
2023-05-21T06:49:07.318Z,49.96
2023-05-21T06:50:07.280Z,50.00
2023-05-21T06:51:07.291Z,49.58
2023-05-21T06:52:07.274Z,49.66
2023-05-21T06:53:07.258Z,48.93
2023-05-21T06:54:07.257Z,48.75
2023-05-21T06:55:07.172Z,48.94
2023-05-21T06:56:07.534Z,48.91
2023-05-21T06:57:07.067Z,48.71
2023-05-21T06:58:07.042Z,48.91
2023-05-21T06:59:07.014Z,48.84
2023-05-21T07:00:07.033Z,48.74
2023-05-21T07:01:07.036Z,48.11
2023-05-21T07:02:07.018Z,48.17
2023-05-21T07:03:07.123Z,48.38
2023-05-21T07:04:06.968Z,48.07
2023-05-21T07:05:06.953Z,47.37
2023-05-21T07:06:06.920Z,47.32
2023-05-21T07:07:06.878Z,46.99
2023-05-21T07:08:06.811Z,47.06
2023-05-21T07:09:06.734Z,47.35
2023-05-21T07:10:06.709Z,46.92
2023-05-21T07:11:06.641Z,46.78
2023-05-21T07:12:06.586Z,46.77
2023-05-21T07:13:06.562Z,46.47
2023-05-21T07:14:06.560Z,46.38
2023-05-21T07:15:06.516Z,45.99
2023-05-21T07:16:06.503Z,46.30
2023-05-21T07:17:06.544Z,46.13
2023-05-21T07:18:06.505Z,46.18
2023-05-21T07:19:06.431Z,45.53
2023-05-21T07:20:06.318Z,45.64
2023-05-21T07:21:06.256Z,45.72
2023-05-21T07:22:06.210Z,45.52
2023-05-21T07:23:06.167Z,45.60
2023-05-21T07:24:06.139Z,46.09
2023-05-21T07:25:06.102Z,45.85
2023-05-21T07:26:06.132Z,45.88
2023-05-21T07:27:14.382Z,45.77
2023-05-21T07:28:06.828Z,45.65
2023-05-21T07:29:05.900Z,45.74
2023-05-21T07:30:05.827Z,45.70
2023-05-21T07:31:05.826Z,45.71
2023-05-21T07:32:05.652Z,45.29
2023-05-21T07:33:05.622Z,45.16
2023-05-21T07:34:05.475Z,44.44
2023-05-21T07:35:05.387Z,44.20
2023-05-21T07:36:05.294Z,42.88
2023-05-21T07:37:05.196Z,42.28
2023-05-21T07:38:05.165Z,42.31
2023-05-21T07:39:05.393Z,42.04
2023-05-21T07:40:04.933Z,41.52
2023-05-21T07:41:04.884Z,41.86
2023-05-21T07:42:04.829Z,42.01
2023-05-21T07:43:04.730Z,41.98
2023-05-21T07:44:04.622Z,42.01
2023-05-21T07:45:04.540Z,41.96
2023-05-21T07:46:04.517Z,42.00
2023-05-21T07:47:04.417Z,41.16
2023-05-21T07:48:04.370Z,40.79
2023-05-21T07:49:04.247Z,40.31
2023-05-21T07:50:04.165Z,40.61
2023-05-21T07:51:04.072Z,40.65
2023-05-21T07:52:03.964Z,40.66
2023-05-21T07:53:03.962Z,40.27
2023-05-21T07:54:03.787Z,40.28
2023-05-21T07:55:03.697Z,40.34
2023-05-21T07:56:03.617Z,40.28
2023-05-21T07:57:03.524Z,40.45
2023-05-21T07:58:03.477Z,40.18
2023-05-21T07:59:03.404Z,39.84
2023-05-21T08:00:03.369Z,39.76
2023-05-21T08:01:03.315Z,39.65
2023-05-21T08:02:03.228Z,39.98
2023-05-21T08:03:03.268Z,39.57
2023-05-21T08:04:03.196Z,39.40
2023-05-21T08:05:03.038Z,39.06
2023-05-21T08:06:02.897Z,38.89
2023-05-21T08:07:02.836Z,38.38
2023-05-21T08:08:02.780Z,38.14
2023-05-21T08:09:02.687Z,38.33
2023-05-21T08:10:03.031Z,38.86
2023-05-21T08:11:02.500Z,38.84
2023-05-21T08:12:02.417Z,38.55
2023-05-21T08:13:02.325Z,38.18
2023-05-21T08:14:02.346Z,37.76
2023-05-21T08:15:02.120Z,37.20
2023-05-21T08:16:02.136Z,37.32
2023-05-21T08:17:01.906Z,37.48
2023-05-21T08:18:01.809Z,37.48
2023-05-21T08:19:01.702Z,37.18
2023-05-21T08:20:01.571Z,37.52
2023-05-21T08:21:01.502Z,37.33
2023-05-21T08:22:01.416Z,36.54
2023-05-21T08:23:01.324Z,36.23
2023-05-21T08:24:01.260Z,35.87
2023-05-21T08:25:01.185Z,35.64
2023-05-21T08:26:01.078Z,35.29
2023-05-21T08:27:00.980Z,35.25
2023-05-21T08:28:00.865Z,34.67
2023-05-21T08:29:00.758Z,34.89
2023-05-21T08:30:00.633Z,34.60
2023-05-21T08:31:00.546Z,34.22
2023-05-21T08:32:00.405Z,34.62
2023-05-21T08:33:00.285Z,34.60
2023-05-21T08:34:00.149Z,33.55
2023-05-21T08:35:00.070Z,33.38
2023-05-21T08:35:59.934Z,33.34
2023-05-21T08:36:59.819Z,33.17
2023-05-21T08:37:59.700Z,32.95
2023-05-21T08:38:59.558Z,34.23
2023-05-21T08:39:59.471Z,34.52
2023-05-21T08:40:59.359Z,33.46
2023-05-21T08:41:59.230Z,33.04
2023-05-21T08:42:59.134Z,32.95
2023-05-21T08:43:59.052Z,32.43
2023-05-21T08:44:58.974Z,33.20
2023-05-21T08:45:59.072Z,32.96
2023-05-21T08:46:58.797Z,34.04
2023-05-21T08:47:58.742Z,33.44
2023-05-21T08:48:58.552Z,33.27
2023-05-21T08:49:58.406Z,32.90
2023-05-21T08:50:58.279Z,32.44
2023-05-21T08:51:58.204Z,31.66
2023-05-21T08:52:58.151Z,31.52
2023-05-21T08:53:57.986Z,31.93
2023-05-21T08:54:57.895Z,32.04
2023-05-21T08:55:57.814Z,31.81
2023-05-21T08:56:57.704Z,31.43
2023-05-21T08:57:57.588Z,31.52
2023-05-21T08:58:57.466Z,31.16
2023-05-21T08:59:57.284Z,31.95
2023-05-21T09:00:57.200Z,32.81
2023-05-21T09:01:57.265Z,31.65
2023-05-21T09:02:56.997Z,33.00
2023-05-21T09:04:04.898Z,33.22
2023-05-21T09:04:56.663Z,32.57
2023-05-21T09:05:56.544Z,32.62
2023-05-21T09:06:56.401Z,32.37
2023-05-21T09:07:56.266Z,32.52
2023-05-21T09:08:56.134Z,31.80
2023-05-21T09:09:55.976Z,32.01
2023-05-21T09:10:55.876Z,32.00
2023-05-21T09:11:55.700Z,31.56
2023-05-21T09:12:55.543Z,32.35
2023-05-21T09:13:55.412Z,31.07
2023-05-21T09:14:55.261Z,30.36
2023-05-21T09:15:55.195Z,31.11
2023-05-21T09:16:54.978Z,31.45
2023-05-21T09:17:54.844Z,31.38
2023-05-21T09:18:54.684Z,32.08
2023-05-21T09:19:54.512Z,32.18
2023-05-21T09:20:54.379Z,32.16
2023-05-21T09:21:54.257Z,32.37
2023-05-21T09:22:54.116Z,32.60
2023-05-21T09:23:53.999Z,32.76
2023-05-21T09:24:53.871Z,33.36
2023-05-21T09:25:53.760Z,33.45
2023-05-21T09:26:53.634Z,33.29
2023-05-21T09:27:53.532Z,33.63
2023-05-21T09:28:53.429Z,34.11
2023-05-21T09:29:53.315Z,33.97
2023-05-21T09:30:53.187Z,34.18
2023-05-21T09:31:53.130Z,34.88
2023-05-21T09:32:52.972Z,34.93
2023-05-21T09:33:52.796Z,34.19
2023-05-21T09:34:52.638Z,33.53
2023-05-21T09:35:52.484Z,33.05
2023-05-21T09:36:52.339Z,32.64
2023-05-21T09:37:52.193Z,33.36
2023-05-21T09:38:52.329Z,31.59
2023-05-21T09:39:51.884Z,31.54
2023-05-21T09:40:52.589Z,33.08
2023-05-21T09:41:51.582Z,32.17
2023-05-21T09:42:51.441Z,31.24
2023-05-21T09:43:51.305Z,30.60
2023-05-21T09:44:51.153Z,30.06
2023-05-21T09:45:51.104Z,30.89
2023-05-21T09:46:51.047Z,30.76
2023-05-21T09:47:50.863Z,31.58
2023-05-21T09:48:50.706Z,30.90
2023-05-21T09:49:50.594Z,29.94
2023-05-21T09:50:50.469Z,28.54
2023-05-21T09:51:50.361Z,28.84
2023-05-21T09:52:50.262Z,29.67
2023-05-21T09:53:50.115Z,28.77
2023-05-21T09:54:50.017Z,28.71
2023-05-21T09:55:49.889Z,28.33
2023-05-21T09:56:49.778Z,28.12
2023-05-21T09:57:50.865Z,28.12
2023-05-21T09:58:49.521Z,28.61
2023-05-21T09:59:49.382Z,28.90
2023-05-21T10:00:49.200Z,29.15
2023-05-21T10:01:49.088Z,29.45
2023-05-21T10:02:48.914Z,28.60
2023-05-21T10:03:50.571Z,28.31
2023-05-21T10:04:48.585Z,28.54
2023-05-21T10:05:48.430Z,27.72
2023-05-21T10:06:48.233Z,27.84
2023-05-21T10:07:48.066Z,28.21
2023-05-21T10:08:47.891Z,27.64
2023-05-21T10:09:47.710Z,27.50
2023-05-21T10:10:47.540Z,28.79
2023-05-21T10:11:47.382Z,28.76
2023-05-21T10:12:47.208Z,28.99
2023-05-21T10:13:47.059Z,28.62
2023-05-21T10:14:46.895Z,29.18
2023-05-21T10:15:47.807Z,28.63
2023-05-21T10:16:46.703Z,28.36
2023-05-21T10:17:46.447Z,28.09
2023-05-21T10:18:46.254Z,28.93
2023-05-21T10:19:46.093Z,29.60
2023-05-21T10:20:45.953Z,28.31
2023-05-21T10:21:45.854Z,28.56
2023-05-21T10:22:45.658Z,30.80
2023-05-21T10:23:45.504Z,29.82
2023-05-21T10:24:45.370Z,29.08
2023-05-21T10:25:45.230Z,30.34
2023-05-21T10:26:45.107Z,30.07
2023-05-21T10:27:44.996Z,29.53
2023-05-21T10:28:44.834Z,29.95
2023-05-21T10:29:44.701Z,29.91
2023-05-21T10:30:44.544Z,29.76
2023-05-21T10:31:44.418Z,29.19
2023-05-21T10:32:44.334Z,27.87
2023-05-21T10:33:44.103Z,28.21
2023-05-21T10:34:43.954Z,28.34
2023-05-21T10:35:43.795Z,30.25
2023-05-21T10:36:43.639Z,29.54
2023-05-21T10:37:43.589Z,29.45
2023-05-21T10:38:43.327Z,28.74
2023-05-21T10:39:43.169Z,28.68
2023-05-21T10:40:43.002Z,28.99
2023-05-21T10:41:42.883Z,29.23
2023-05-21T10:42:42.711Z,29.14
2023-05-21T10:43:42.553Z,29.14
2023-05-21T10:44:42.405Z,28.84
2023-05-21T10:45:42.319Z,28.87
2023-05-21T10:46:42.093Z,28.99
2023-05-21T10:47:41.970Z,28.42
2023-05-21T10:48:41.792Z,27.57
2023-05-21T10:49:41.693Z,28.40
2023-05-21T10:50:41.540Z,28.30
2023-05-21T10:51:41.429Z,28.96
2023-05-21T10:52:41.341Z,28.63
2023-05-21T10:53:41.280Z,27.94
2023-05-21T10:54:41.151Z,27.91
2023-05-21T10:55:41.021Z,27.78
2023-05-21T10:56:40.928Z,28.22
2023-05-21T10:57:40.777Z,28.69
2023-05-21T10:58:40.642Z,28.39
2023-05-21T10:59:40.504Z,27.42
2023-05-21T11:00:40.380Z,26.50
2023-05-21T11:01:40.323Z,26.59
2023-05-21T11:02:40.291Z,27.06
2023-05-21T11:03:40.178Z,27.04
2023-05-21T11:04:40.066Z,27.36
2023-05-21T11:05:39.779Z,26.86
2023-05-21T11:06:39.656Z,26.96
2023-05-21T11:07:39.495Z,26.99
2023-05-21T11:08:39.399Z,27.69
2023-05-21T11:09:39.298Z,26.76
2023-05-21T11:10:39.393Z,27.64
2023-05-21T11:11:39.073Z,26.74
2023-05-21T11:12:38.970Z,26.84
2023-05-21T11:13:38.839Z,26.31
2023-05-21T11:14:38.726Z,26.02
2023-05-21T11:15:38.607Z,26.25
2023-05-21T11:16:38.485Z,26.94
2023-05-21T11:17:38.375Z,25.55
2023-05-21T11:18:38.204Z,24.81
2023-05-21T11:19:38.376Z,25.27
2023-05-21T11:20:38.137Z,25.27
2023-05-21T11:21:37.902Z,24.52
2023-05-21T11:22:37.743Z,23.38
2023-05-21T11:23:37.644Z,23.39
2023-05-21T11:24:37.504Z,23.46
2023-05-21T11:25:37.379Z,24.12
2023-05-21T11:26:37.222Z,23.73
2023-05-21T11:27:37.122Z,24.06
2023-05-21T11:28:37.016Z,23.58
2023-05-21T11:29:36.917Z,23.73
2023-05-21T11:30:38.356Z,24.23
2023-05-21T11:31:36.740Z,24.09
2023-05-21T11:32:36.536Z,24.37
2023-05-21T11:33:36.346Z,24.29
2023-05-21T11:34:36.191Z,24.87
2023-05-21T11:35:36.057Z,25.29
2023-05-21T11:36:36.188Z,24.07
2023-05-21T11:37:35.746Z,24.17
2023-05-21T11:38:35.581Z,24.39
2023-05-21T11:39:35.422Z,24.04
2023-05-21T11:40:35.470Z,23.52
2023-05-21T11:41:35.126Z,23.25
2023-05-21T11:42:34.945Z,23.24
2023-05-21T11:43:34.776Z,23.12
2023-05-21T11:44:34.606Z,23.18
2023-05-21T11:45:34.438Z,23.33
2023-05-21T11:46:34.311Z,22.94
2023-05-21T11:47:34.132Z,23.34
2023-05-21T11:48:33.923Z,23.40
2023-05-21T11:49:33.759Z,23.41
2023-05-21T11:50:33.746Z,23.39
2023-05-21T11:51:33.487Z,23.20
2023-05-21T11:52:33.358Z,24.45
2023-05-21T11:53:33.204Z,23.86
2023-05-21T11:54:33.049Z,24.20
2023-05-21T11:55:32.921Z,24.54
2023-05-21T11:56:32.850Z,24.45
2023-05-21T11:57:32.744Z,25.32
2023-05-21T11:58:32.592Z,26.96
2023-05-21T11:59:32.482Z,24.76
2023-05-21T12:00:32.361Z,24.19
2023-05-21T12:01:32.245Z,22.99
2023-05-21T12:02:32.378Z,23.59
2023-05-21T12:03:32.104Z,24.42
2023-05-21T12:04:31.891Z,25.21
2023-05-21T12:05:31.803Z,25.36
2023-05-21T12:06:31.726Z,23.11
2023-05-21T12:07:31.543Z,22.68
2023-05-21T12:08:31.311Z,22.55
2023-05-21T12:09:31.198Z,23.07
2023-05-21T12:10:31.095Z,23.35
2023-05-21T12:11:30.993Z,23.63
2023-05-21T12:12:38.885Z,24.12
2023-05-21T12:13:30.721Z,24.34
2023-05-21T12:14:30.600Z,24.31
2023-05-21T12:15:30.364Z,24.53
2023-05-21T12:16:30.233Z,24.15
2023-05-21T12:17:30.008Z,24.10
2023-05-21T12:18:29.824Z,24.70
2023-05-21T12:19:29.691Z,24.42
2023-05-21T12:20:29.499Z,24.05
2023-05-21T12:21:29.287Z,24.06
2023-05-21T12:22:29.108Z,24.10
2023-05-21T12:23:28.929Z,23.81
2023-05-21T12:24:28.755Z,23.65
2023-05-21T12:25:28.586Z,23.94
2023-05-21T12:26:28.454Z,24.36
2023-05-21T12:27:28.230Z,24.76
2023-05-21T12:28:28.039Z,25.12
2023-05-21T12:29:27.911Z,23.88
2023-05-21T12:30:27.722Z,24.10
2023-05-21T12:31:27.628Z,24.28
2023-05-21T12:32:27.429Z,23.93
2023-05-21T12:33:27.220Z,24.47
2023-05-21T12:34:27.068Z,24.73
2023-05-21T12:35:26.970Z,24.98
2023-05-21T12:36:26.765Z,26.21
2023-05-21T12:37:26.657Z,26.24
2023-05-21T12:38:26.449Z,23.36
2023-05-21T12:39:26.296Z,22.78
2023-05-21T12:40:26.125Z,22.39
2023-05-21T12:41:25.973Z,22.82
2023-05-21T12:42:25.825Z,23.10
2023-05-21T12:43:25.698Z,22.93
2023-05-21T12:44:25.509Z,23.17
2023-05-21T12:45:25.333Z,22.91
2023-05-21T12:46:25.167Z,23.68
2023-05-21T12:47:25.000Z,24.87
2023-05-21T12:48:24.824Z,24.95
2023-05-21T12:49:24.666Z,23.63
2023-05-21T12:50:24.512Z,23.92
2023-05-21T12:51:24.391Z,23.47
2023-05-21T12:52:24.222Z,24.13